createdAt,value
2018-08-23T00:00:05.323Z,20.80
2018-08-23T00:02:31.643Z,20.75
2018-08-23T00:04:58.000Z,20.76
2018-08-23T00:07:24.322Z,20.67
2018-08-23T00:09:50.697Z,20.62
2018-08-23T00:12:16.990Z,20.67
2018-08-23T00:14:43.309Z,20.61
2018-08-23T00:17:09.628Z,20.54
2018-08-23T00:19:35.937Z,20.55
2018-08-23T00:22:02.257Z,20.52
2018-08-23T00:24:28.568Z,20.52
2018-08-23T00:26:54.882Z,20.47
2018-08-23T00:29:21.192Z,20.44
2018-08-23T00:31:47.512Z,20.49
2018-08-23T00:34:13.825Z,20.51
2018-08-23T00:36:40.487Z,20.54
2018-08-23T00:39:06.796Z,20.51
2018-08-23T00:41:33.121Z,20.47
2018-08-23T00:44:04.748Z,20.47
2018-08-23T00:46:28.541Z,20.46
2018-08-23T00:48:55.091Z,20.45
2018-08-23T00:51:21.443Z,20.38
2018-08-23T00:53:47.751Z,20.35
2018-08-23T00:56:14.080Z,20.28
2018-08-23T00:58:40.404Z,20.21
2018-08-23T01:01:06.711Z,20.15
2018-08-23T01:03:33.020Z,20.08
2018-08-23T01:05:59.340Z,20.02
2018-08-23T01:08:25.652Z,19.97
2018-08-23T01:10:51.976Z,19.91
2018-08-23T01:13:18.298Z,19.91
2018-08-23T01:15:44.983Z,19.80
2018-08-23T01:18:11.298Z,19.79
2018-08-23T01:20:37.609Z,19.87
2018-08-23T01:23:03.929Z,19.89
2018-08-23T01:25:30.282Z,19.88
2018-08-23T01:27:56.549Z,19.87
2018-08-23T01:30:22.860Z,19.87
2018-08-23T01:32:49.176Z,19.91
2018-08-23T01:35:15.492Z,19.96
2018-08-23T01:37:41.801Z,19.97
2018-08-23T01:40:08.121Z,19.93
2018-08-23T01:42:34.450Z,19.88
2018-08-23T01:45:00.791Z,19.82
2018-08-23T01:47:27.131Z,19.79
2018-08-23T01:49:53.446Z,19.79
2018-08-23T01:52:19.763Z,19.78
2018-08-23T01:54:46.092Z,19.73
2018-08-23T01:57:12.449Z,19.69
2018-08-23T01:59:38.769Z,19.70
2018-08-23T02:02:05.125Z,19.80
2018-08-23T02:04:31.449Z,19.88
2018-08-23T02:06:57.803Z,19.92
2018-08-23T02:09:24.111Z,19.90
2018-08-23T02:11:50.468Z,19.89
2018-08-23T02:14:16.795Z,19.89
2018-08-23T02:16:43.157Z,19.89
2018-08-23T02:19:09.546Z,19.85
2018-08-23T02:21:35.899Z,19.83
2018-08-23T02:24:02.228Z,19.87
2018-08-23T02:26:28.535Z,19.85
2018-08-23T02:28:54.911Z,19.84
2018-08-23T02:31:21.223Z,19.81
2018-08-23T02:33:47.535Z,19.78
2018-08-23T02:36:13.850Z,19.73
2018-08-23T02:38:40.162Z,19.68
2018-08-23T02:41:06.529Z,19.64
2018-08-23T02:43:32.865Z,19.60
2018-08-23T02:45:59.179Z,19.56
2018-08-23T02:48:25.496Z,19.54
2018-08-23T02:50:51.810Z,19.52
2018-08-23T02:53:18.141Z,19.47
2018-08-23T02:55:44.475Z,19.43
2018-08-23T02:58:10.803Z,19.41
2018-08-23T03:00:37.230Z,19.40
2018-08-23T03:03:03.443Z,19.32
2018-08-23T03:05:29.788Z,19.27
2018-08-23T03:07:56.103Z,19.21
2018-08-23T03:10:22.426Z,19.15
2018-08-23T03:12:48.742Z,19.11
2018-08-23T03:15:15.064Z,19.09
2018-08-23T03:17:41.373Z,19.10
2018-08-23T03:20:07.732Z,19.15
2018-08-23T03:22:34.058Z,19.15
2018-08-23T03:25:00.385Z,19.09
2018-08-23T03:27:26.711Z,19.04
2018-08-23T03:29:53.018Z,19.08
2018-08-23T03:32:19.342Z,19.08
2018-08-23T03:34:45.711Z,19.06
2018-08-23T03:37:12.015Z,19.01
2018-08-23T03:39:38.371Z,18.91
2018-08-23T03:42:04.703Z,18.80
2018-08-23T03:44:31.038Z,18.72
2018-08-23T03:46:57.340Z,18.71
2018-08-23T03:49:23.661Z,18.71
2018-08-23T03:51:50.030Z,18.82
2018-08-23T03:54:16.361Z,18.85
2018-08-23T03:56:42.665Z,18.87
2018-08-23T03:59:08.988Z,18.97
2018-08-23T04:01:35.322Z,19.02
2018-08-23T04:04:01.661Z,19.09
2018-08-23T04:06:28.005Z,19.19
2018-08-23T04:08:54.328Z,19.19
2018-08-23T04:11:20.647Z,19.24
2018-08-23T04:13:47.003Z,19.38
2018-08-23T04:16:13.330Z,19.40
2018-08-23T04:18:39.682Z,19.41
2018-08-23T04:21:05.993Z,19.44
2018-08-23T04:23:32.325Z,19.62
2018-08-23T04:25:58.671Z,19.86
2018-08-23T04:28:25.001Z,20.04
2018-08-23T04:30:51.361Z,20.15
2018-08-23T04:33:17.682Z,19.99
2018-08-23T04:35:44.005Z,20.06
2018-08-23T04:38:10.326Z,20.14
2018-08-23T04:40:36.706Z,20.20
2018-08-23T04:43:03.052Z,20.49
2018-08-23T04:45:29.386Z,20.75
2018-08-23T04:47:55.726Z,20.83
2018-08-23T04:50:22.050Z,20.85
2018-08-23T04:52:48.360Z,20.85
2018-08-23T04:55:14.709Z,21.12
2018-08-23T04:57:41.036Z,21.23
2018-08-23T05:00:07.359Z,21.08
2018-08-23T05:02:33.682Z,20.91
2018-08-23T05:05:00.013Z,20.90
2018-08-23T05:07:26.340Z,21.06
2018-08-23T05:09:52.653Z,21.53
2018-08-23T05:12:18.992Z,21.83
2018-08-23T05:14:45.313Z,21.91
2018-08-23T05:17:11.645Z,21.94
2018-08-23T05:19:37.998Z,21.88
2018-08-23T05:22:04.329Z,21.94
2018-08-23T05:24:30.650Z,21.99
2018-08-23T05:26:56.988Z,22.11
2018-08-23T05:29:23.308Z,22.28
2018-08-23T05:31:49.627Z,22.55
2018-08-23T05:34:15.955Z,22.64
2018-08-23T05:36:42.331Z,22.75
2018-08-23T05:39:08.701Z,22.95
2018-08-23T05:41:35.070Z,23.04
2018-08-23T05:44:01.352Z,23.18
2018-08-23T05:46:27.686Z,23.40
2018-08-23T05:48:54.008Z,23.32
2018-08-23T05:51:20.347Z,23.39
2018-08-23T05:53:46.690Z,23.64
2018-08-23T05:56:13.052Z,23.79
2018-08-23T05:58:39.381Z,24.03
2018-08-23T06:01:05.715Z,23.97
2018-08-23T06:03:32.120Z,24.32
2018-08-23T06:05:58.443Z,24.27
2018-08-23T06:08:24.856Z,24.07
2018-08-23T06:10:51.105Z,24.44
2018-08-23T06:13:17.438Z,24.80
2018-08-23T06:15:43.761Z,24.94
2018-08-23T06:18:10.094Z,24.73
2018-08-23T06:20:36.407Z,24.96
2018-08-23T06:23:02.731Z,25.19
2018-08-23T06:25:29.087Z,25.71
2018-08-23T06:27:55.417Z,25.76
2018-08-23T06:30:21.791Z,25.63
2018-08-23T06:32:48.211Z,25.56
2018-08-23T06:35:14.498Z,25.65
2018-08-23T06:37:40.882Z,25.90
2018-08-23T06:40:07.209Z,26.22
2018-08-23T06:42:33.579Z,26.07
2018-08-23T06:44:59.928Z,25.70
2018-08-23T06:47:26.254Z,26.05
2018-08-23T06:49:52.577Z,26.28
2018-08-23T06:52:18.893Z,26.26
2018-08-23T06:54:45.220Z,26.13
2018-08-23T06:57:11.535Z,25.89
2018-08-23T06:59:37.855Z,26.19
2018-08-23T07:02:04.171Z,26.25
2018-08-23T07:04:30.490Z,26.28
2018-08-23T07:06:56.843Z,26.27
2018-08-23T07:09:23.156Z,26.88
2018-08-23T07:11:49.530Z,27.35
2018-08-23T07:14:15.812Z,27.48
2018-08-23T07:19:42.415Z,27.06
2018-08-23T07:22:08.625Z,26.97
2018-08-23T07:24:40.874Z,27.39
2018-08-23T07:27:03.613Z,27.56
2018-08-23T07:29:27.989Z,27.28
2018-08-23T07:31:54.334Z,27.65
2018-08-23T07:34:20.656Z,28.04
2018-08-23T07:36:46.979Z,28.04
2018-08-23T07:39:13.618Z,28.27
2018-08-23T07:41:39.860Z,28.47
2018-08-23T07:44:06.212Z,29.04
2018-08-23T07:46:32.512Z,28.95
2018-08-23T07:48:58.890Z,29.31
2018-08-23T07:51:25.222Z,28.82
2018-08-23T07:53:51.527Z,29.18
2018-08-23T07:56:17.884Z,29.51
2018-08-23T07:58:44.210Z,29.25
2018-08-23T08:01:10.548Z,29.44
2018-08-23T08:03:36.881Z,30.01
2018-08-23T08:06:03.218Z,30.25
2018-08-23T08:08:29.568Z,29.67
2018-08-23T08:10:55.890Z,29.90
2018-08-23T08:13:22.219Z,29.92
2018-08-23T08:15:48.545Z,30.48
2018-08-23T08:18:14.902Z,30.38
2018-08-23T08:20:41.243Z,30.49
2018-08-23T08:23:07.556Z,30.72
2018-08-23T08:25:33.926Z,30.62
2018-08-23T08:28:00.240Z,30.59
2018-08-23T08:30:26.549Z,30.63
2018-08-23T08:32:52.907Z,30.23
2018-08-23T08:35:19.236Z,30.23
2018-08-23T08:37:45.571Z,30.33
2018-08-23T08:40:11.894Z,30.64
2018-08-23T08:42:38.216Z,30.35
2018-08-23T08:45:04.532Z,29.86
2018-08-23T08:47:30.956Z,29.97
2018-08-23T08:49:57.292Z,30.08
2018-08-23T08:52:23.629Z,29.86
2018-08-23T08:54:49.957Z,29.94
2018-08-23T08:57:16.396Z,30.85
2018-08-23T08:59:42.671Z,30.43
2018-08-23T09:02:09.055Z,30.06
2018-08-23T09:04:35.392Z,30.72
2018-08-23T09:07:01.765Z,30.74
2018-08-23T09:09:28.127Z,30.65
2018-08-23T09:11:54.509Z,30.75
2018-08-23T09:14:31.876Z,31.16
2018-08-23T09:16:55.679Z,30.95
2018-08-23T09:19:22.032Z,30.57
2018-08-23T09:21:48.369Z,30.56
2018-08-23T09:24:14.709Z,30.96
2018-08-23T09:26:41.046Z,31.23
2018-08-23T09:29:07.363Z,31.18
2018-08-23T09:31:33.681Z,31.95
2018-08-23T09:34:00.022Z,32.24
2018-08-23T09:36:26.387Z,32.32
2018-08-23T09:38:52.722Z,32.06
2018-08-23T09:41:19.032Z,31.30
2018-08-23T09:43:45.346Z,31.49
2018-08-23T09:46:11.662Z,31.26
2018-08-23T09:48:38.021Z,30.81
2018-08-23T09:51:04.368Z,30.75
2018-08-23T09:53:30.664Z,31.05
2018-08-23T09:55:56.986Z,31.17
2018-08-23T09:58:23.327Z,30.65
2018-08-23T10:00:49.688Z,30.94
2018-08-23T10:03:16.042Z,30.79
2018-08-23T10:05:42.362Z,30.24
2018-08-23T10:08:08.687Z,30.66
2018-08-23T10:10:35.000Z,31.08
2018-08-23T10:13:01.318Z,30.96
2018-08-23T10:15:27.646Z,30.55
2018-08-23T10:17:54.001Z,30.37
2018-08-23T10:20:20.280Z,30.24
2018-08-23T10:22:46.600Z,30.39
2018-08-23T10:25:12.921Z,30.50
2018-08-23T10:27:39.237Z,30.21
2018-08-23T10:30:05.638Z,30.36
2018-08-23T10:32:31.956Z,30.65
2018-08-23T10:34:58.273Z,30.27
2018-08-23T10:37:24.613Z,30.29
2018-08-23T10:39:50.935Z,30.87
2018-08-23T10:42:17.353Z,31.27
2018-08-23T10:44:43.652Z,30.96
2018-08-23T10:47:10.032Z,30.66
2018-08-23T10:49:36.379Z,30.85
2018-08-23T10:52:02.699Z,30.82
2018-08-23T10:54:29.012Z,30.86
2018-08-23T10:56:55.324Z,30.97
2018-08-23T10:59:21.651Z,31.03
2018-08-23T11:01:47.973Z,31.00
2018-08-23T11:04:14.351Z,31.03
2018-08-23T11:06:40.702Z,30.70
2018-08-23T11:09:07.018Z,30.05
2018-08-23T11:11:33.334Z,30.05
2018-08-23T11:13:59.650Z,30.36
2018-08-23T11:16:25.981Z,30.60
2018-08-23T11:18:52.299Z,30.75
2018-08-23T11:21:18.701Z,30.44
2018-08-23T11:23:45.080Z,30.54
2018-08-23T11:26:11.393Z,30.55
2018-08-23T11:28:37.709Z,30.87
2018-08-23T11:31:04.065Z,30.36
2018-08-23T11:33:30.379Z,30.24
2018-08-23T11:35:56.738Z,30.86
2018-08-23T11:38:23.145Z,30.88
2018-08-23T11:40:49.460Z,30.75
2018-08-23T11:43:15.818Z,31.33
2018-08-23T11:45:42.140Z,30.96
2018-08-23T11:48:08.494Z,30.58
2018-08-23T11:50:34.866Z,30.68
2018-08-23T11:53:01.202Z,30.37
2018-08-23T11:55:27.533Z,30.15
2018-08-23T11:57:53.870Z,30.35
2018-08-23T12:00:20.253Z,30.25
2018-08-23T12:02:46.584Z,30.37
2018-08-23T12:05:12.957Z,30.53
2018-08-23T12:07:39.350Z,30.59
2018-08-23T12:10:05.676Z,29.92
2018-08-23T12:12:32.039Z,30.49
2018-08-23T12:14:58.360Z,30.33
2018-08-23T12:17:24.679Z,30.26
2018-08-23T12:19:51.017Z,30.61
2018-08-23T12:22:17.377Z,30.71
2018-08-23T12:24:43.697Z,30.66
2018-08-23T12:27:10.022Z,30.71
2018-08-23T12:29:36.382Z,30.91
2018-08-23T12:32:02.728Z,30.92
2018-08-23T12:34:29.084Z,30.49
2018-08-23T12:36:55.395Z,30.15
2018-08-23T12:39:21.764Z,30.37
2018-08-23T12:41:48.158Z,30.27
2018-08-23T12:44:14.508Z,30.17
2018-08-23T12:46:40.862Z,29.68
2018-08-23T12:49:07.169Z,29.69
2018-08-23T12:51:33.481Z,29.96
2018-08-23T12:53:59.836Z,29.73
2018-08-23T12:56:26.173Z,29.81
2018-08-23T12:58:52.456Z,29.37
2018-08-23T13:01:18.833Z,29.30
2018-08-23T13:03:45.209Z,29.22
2018-08-23T13:06:11.522Z,29.21
2018-08-23T13:08:37.872Z,29.33
2018-08-23T13:11:04.248Z,29.41
2018-08-23T13:13:30.501Z,29.34
2018-08-23T13:15:56.813Z,29.13
2018-08-23T13:18:23.162Z,28.73
2018-08-23T13:20:49.476Z,28.64
2018-08-23T13:23:15.810Z,28.61
2018-08-23T13:25:42.117Z,28.59
2018-08-23T13:28:08.433Z,28.91
2018-08-23T13:30:34.745Z,28.99
2018-08-23T13:33:01.063Z,29.34
2018-08-23T13:35:27.525Z,29.27
2018-08-23T13:37:53.816Z,29.02
2018-08-23T13:40:20.166Z,28.99
2018-08-23T13:42:46.518Z,28.91
2018-08-23T13:45:12.830Z,29.05
2018-08-23T13:47:39.142Z,28.98
2018-08-23T13:50:05.505Z,28.76
2018-08-23T13:52:31.857Z,28.78
2018-08-23T13:54:58.140Z,28.75
2018-08-23T13:57:24.455Z,28.74
2018-08-23T13:59:50.779Z,28.68
2018-08-23T14:02:17.197Z,28.60
2018-08-23T14:04:43.489Z,28.59
2018-08-23T14:07:09.835Z,28.52
2018-08-23T14:09:36.117Z,28.47
2018-08-23T14:12:02.475Z,28.39
2018-08-23T14:14:28.819Z,28.63
2018-08-23T14:16:55.141Z,28.86
2018-08-23T14:19:21.585Z,28.92
2018-08-23T14:21:47.807Z,28.90
2018-08-23T14:24:14.117Z,28.89
2018-08-23T14:26:40.433Z,28.63
2018-08-23T14:29:06.754Z,28.68
2018-08-23T14:31:33.101Z,28.75
2018-08-23T14:33:59.444Z,28.66
2018-08-23T14:36:25.762Z,28.63
2018-08-23T14:38:52.145Z,28.88
2018-08-23T14:41:18.416Z,28.87
2018-08-23T14:43:44.740Z,28.61
2018-08-23T14:46:11.058Z,28.39
2018-08-23T14:48:37.407Z,28.37
2018-08-23T14:51:03.762Z,28.33
2018-08-23T14:53:30.108Z,28.27
2018-08-23T14:55:56.452Z,28.32
2018-08-23T14:58:22.793Z,28.37
2018-08-23T15:00:49.113Z,28.36
2018-08-23T15:03:15.429Z,28.41
2018-08-23T15:05:41.782Z,28.39
2018-08-23T15:08:08.138Z,28.42
2018-08-23T15:10:34.438Z,28.26
2018-08-23T15:13:00.758Z,28.22
2018-08-23T15:15:27.146Z,28.20
2018-08-23T15:17:53.463Z,28.23
2018-08-23T15:20:19.787Z,28.14
2018-08-23T15:22:46.113Z,28.09
2018-08-23T15:25:12.412Z,28.03
2018-08-23T15:27:38.726Z,27.94
2018-08-23T15:30:05.042Z,27.95
2018-08-23T15:32:31.365Z,27.99
2018-08-23T15:34:57.679Z,27.95
2018-08-23T15:37:23.995Z,27.94
2018-08-23T15:39:50.344Z,27.98
2018-08-23T15:42:16.691Z,28.02
2018-08-23T15:44:43.050Z,27.91
2018-08-23T15:47:09.351Z,27.78
2018-08-23T15:49:35.665Z,27.83
2018-08-23T15:52:01.973Z,27.87
2018-08-23T15:54:28.295Z,27.95
2018-08-23T15:56:54.618Z,27.90
2018-08-23T15:59:20.975Z,27.88
2018-08-23T16:01:47.296Z,27.85
2018-08-23T16:04:13.614Z,27.81
2018-08-23T16:06:39.935Z,27.77
2018-08-23T16:09:06.249Z,27.74
2018-08-23T16:11:32.559Z,27.68
2018-08-23T16:13:58.871Z,27.67
2018-08-23T16:16:25.245Z,27.67
2018-08-23T16:18:51.564Z,27.65
2018-08-23T16:21:17.880Z,27.61
2018-08-23T16:23:44.228Z,27.52
2018-08-23T16:26:10.520Z,27.47
2018-08-23T16:28:36.836Z,27.48
2018-08-23T16:31:03.157Z,27.47
2018-08-23T16:33:29.478Z,27.50
2018-08-23T16:35:55.796Z,27.46
2018-08-23T16:38:22.113Z,27.38
2018-08-23T16:40:48.432Z,27.32
2018-08-23T16:43:14.753Z,27.30
2018-08-23T16:45:41.074Z,27.27
2018-08-23T16:48:07.428Z,27.21
2018-08-23T16:50:33.743Z,27.16
2018-08-23T16:53:00.111Z,27.11
2018-08-23T16:55:26.376Z,27.06
2018-08-23T16:57:52.698Z,27.01
2018-08-23T17:00:19.042Z,26.97
2018-08-23T17:02:45.392Z,26.92
2018-08-23T17:05:11.706Z,26.86
2018-08-23T17:07:38.023Z,26.80
2018-08-23T17:10:04.375Z,26.76
2018-08-23T17:12:30.648Z,26.70
2018-08-23T17:14:56.972Z,26.65
2018-08-23T17:17:23.289Z,26.58
2018-08-23T17:19:49.659Z,26.54
2018-08-23T17:22:16.020Z,26.49
2018-08-23T17:24:42.482Z,26.46
2018-08-23T17:27:08.659Z,26.39
2018-08-23T17:29:34.972Z,26.33
2018-08-23T17:32:01.291Z,26.26
2018-08-23T17:34:27.650Z,26.19
2018-08-23T17:36:53.941Z,26.15
2018-08-23T17:39:20.263Z,26.13
2018-08-23T17:41:46.588Z,26.11
2018-08-23T17:44:12.907Z,26.05
2018-08-23T17:46:39.225Z,25.97
2018-08-23T17:49:05.542Z,25.91
2018-08-23T17:51:31.877Z,25.86
2018-08-23T17:53:58.191Z,25.80
2018-08-23T17:56:24.525Z,25.69
2018-08-23T17:58:50.832Z,25.41
2018-08-23T18:01:17.165Z,25.16
2018-08-23T18:03:43.472Z,25.11
2018-08-23T18:06:09.788Z,25.12
2018-08-23T18:08:36.101Z,25.14
2018-08-23T18:11:02.470Z,25.13
2018-08-23T18:13:28.799Z,25.12
2018-08-23T18:15:55.129Z,25.14
2018-08-23T18:18:21.461Z,25.12
2018-08-23T18:20:47.792Z,25.11
2018-08-23T18:23:14.110Z,25.12
2018-08-23T18:25:40.444Z,25.12
2018-08-23T18:28:06.753Z,25.11
2018-08-23T18:30:33.062Z,25.10
2018-08-23T18:32:59.435Z,25.06
2018-08-23T18:35:25.750Z,25.02
2018-08-23T18:37:52.092Z,24.98
2018-08-23T18:40:18.410Z,24.95
2018-08-23T18:42:44.738Z,24.89
2018-08-23T18:45:11.049Z,24.85
2018-08-23T18:47:37.384Z,24.80
2018-08-23T18:50:03.702Z,24.65
2018-08-23T18:52:30.027Z,24.54
2018-08-23T18:54:56.355Z,24.51
2018-08-23T18:57:22.669Z,24.46
2018-08-23T18:59:48.998Z,24.38
2018-08-23T19:02:15.314Z,24.30
2018-08-23T19:04:41.624Z,24.22
2018-08-23T19:07:07.945Z,24.19
2018-08-23T19:09:34.286Z,24.13
2018-08-23T19:12:00.664Z,24.11
2018-08-23T19:14:26.958Z,24.06
2018-08-23T19:16:53.288Z,23.94
2018-08-23T19:19:19.619Z,23.82
2018-08-23T19:21:45.932Z,23.71
2018-08-23T19:24:12.241Z,23.59
2018-08-23T19:26:38.553Z,23.51
2018-08-23T19:29:04.864Z,23.45
2018-08-23T19:31:31.257Z,23.39
2018-08-23T19:33:57.520Z,23.33
2018-08-23T19:36:23.836Z,23.29
2018-08-23T19:38:50.188Z,23.25
2018-08-23T19:41:16.515Z,23.19
2018-08-23T19:43:42.830Z,23.12
2018-08-23T19:46:09.199Z,23.09
2018-08-23T19:48:35.523Z,23.06
2018-08-23T19:51:01.854Z,23.09
2018-08-23T19:53:28.178Z,23.07
2018-08-23T19:55:54.503Z,23.02
2018-08-23T19:58:20.854Z,22.95
2018-08-23T20:00:47.166Z,22.94
2018-08-23T20:03:13.481Z,22.90
2018-08-23T20:05:39.838Z,22.86
2018-08-23T20:08:06.150Z,22.83
2018-08-23T20:10:32.467Z,22.81
2018-08-23T20:12:58.781Z,22.81
2018-08-23T20:15:25.113Z,22.83
2018-08-23T20:17:51.483Z,22.82
2018-08-23T20:20:17.819Z,22.84
2018-08-23T20:22:44.147Z,22.83
2018-08-23T20:25:10.457Z,22.82
2018-08-23T20:27:36.788Z,22.84
2018-08-23T20:30:03.101Z,22.85
2018-08-23T20:32:29.417Z,22.85
2018-08-23T20:34:55.743Z,22.84
2018-08-23T20:37:22.076Z,22.83
2018-08-23T20:39:48.475Z,22.81
2018-08-23T20:42:14.711Z,22.79
2018-08-23T20:44:41.035Z,22.73
2018-08-23T20:47:07.466Z,22.68
2018-08-23T20:49:33.684Z,22.66
2018-08-23T20:52:00.010Z,22.64
2018-08-23T20:54:26.343Z,22.64
2018-08-23T20:56:52.652Z,22.58
2018-08-23T20:59:18.965Z,22.49
2018-08-23T21:01:45.272Z,22.31
2018-08-23T21:06:37.974Z,22.15
2018-08-23T21:09:04.292Z,22.15
2018-08-23T21:11:30.611Z,22.11
2018-08-23T21:13:56.940Z,22.08
2018-08-23T21:16:23.270Z,21.99
2018-08-23T21:18:49.580Z,21.88
2018-08-23T21:21:15.896Z,21.89
2018-08-23T21:23:42.224Z,21.97
2018-08-23T21:26:08.554Z,22.02
2018-08-23T21:28:34.869Z,22.08
2018-08-23T21:31:01.191Z,22.15
2018-08-23T21:33:27.500Z,22.20
2018-08-23T21:35:53.828Z,22.25
2018-08-23T21:38:20.160Z,22.17
2018-08-23T21:40:46.508Z,22.10
2018-08-23T21:43:12.817Z,22.05
2018-08-23T21:45:39.130Z,22.07
2018-08-23T21:48:05.445Z,22.09
2018-08-23T21:50:31.757Z,22.12
2018-08-23T21:52:58.088Z,22.26
2018-08-23T21:55:24.459Z,22.23
2018-08-23T21:57:50.781Z,22.21
2018-08-23T22:00:24.887Z,22.18
2018-08-23T22:02:51.187Z,22.17
2018-08-23T22:05:17.513Z,22.15
2018-08-23T22:07:43.832Z,22.12
2018-08-23T22:10:10.152Z,22.13
2018-08-23T22:12:36.504Z,22.11
2018-08-23T22:15:03.334Z,22.07
2018-08-23T22:17:29.695Z,22.11
2018-08-23T22:19:56.044Z,22.13
2018-08-23T22:22:22.363Z,22.10
2018-08-23T22:24:48.687Z,22.06
2018-08-23T22:27:15.005Z,21.99
2018-08-23T22:29:41.326Z,21.95
2018-08-23T22:32:07.670Z,21.92
2018-08-23T22:34:33.988Z,21.94
2018-08-23T22:37:00.310Z,21.98
2018-08-23T22:39:26.676Z,21.99
2018-08-23T22:41:52.972Z,21.95
2018-08-23T22:44:19.331Z,21.91
2018-08-23T22:46:45.669Z,21.89
2018-08-23T22:49:12.013Z,21.86
2018-08-23T22:51:38.296Z,21.79
2018-08-23T22:54:04.639Z,21.61
2018-08-23T22:56:30.953Z,21.41
2018-08-23T22:58:57.269Z,21.34
2018-08-23T23:01:23.589Z,21.27
2018-08-23T23:03:49.929Z,21.29
2018-08-23T23:06:16.260Z,21.33
2018-08-23T23:08:42.597Z,21.33
2018-08-23T23:11:08.991Z,21.24
2018-08-23T23:13:35.339Z,21.17
2018-08-23T23:16:01.681Z,21.12
2018-08-23T23:18:28.019Z,21.13
2018-08-23T23:20:54.324Z,21.12
2018-08-23T23:23:20.651Z,21.11
2018-08-23T23:25:46.967Z,21.10
2018-08-23T23:28:13.288Z,21.10
2018-08-23T23:30:39.606Z,21.15
2018-08-23T23:33:05.920Z,21.25
2018-08-23T23:35:32.256Z,21.34
2018-08-23T23:37:58.582Z,21.35
2018-08-23T23:40:24.908Z,21.38
2018-08-23T23:42:51.258Z,21.41
2018-08-23T23:45:17.545Z,21.40
2018-08-23T23:47:43.918Z,21.39
2018-08-23T23:50:10.244Z,21.32
2018-08-23T23:52:36.612Z,21.29
2018-08-23T23:55:02.942Z,21.23
2018-08-23T23:57:29.311Z,21.19
2018-08-23T23:59:55.628Z,21.22
